Metar Cercanos

 

LEPA - Palma De Mallorc, Spain
Distance from station: ONO 38km
Actualización: Sat, 27-Feb-2021 4:30am CET
Parcialmente nuboso
Parcialmente nuboso
 Viento del NE
Viento: NE 4 km/h
Temperatura: 4°C
Rocío: 4°C
Humedad: 100%
Barómetro: 1026 hPa
Clouds: Parcialmente nuboso
Visibility: 10 km
Cloud details: Few Clouds 549 m
Parcialmente nuboso 732 m
2021/02/27 03:30 LEPA 270330Z 04002KT 9999 FEW018 SCT024 04/04 Q1026 NOSIG
LEMH - Mahon/Menorca Is, Spain
Distance from station: ENE 105km
Actualización: Sat, 27-Feb-2021 4:30am CET
Despejado
Despejado
 Viento del NNO
Viento: NNO 11 km/h
Temperatura: 7°C
Sensación frio: 5°C
Rocío: 7°C
Humedad: 100%
Barómetro: 1026 hPa
Resumen: Despejado
Visibility: greater than 10 km
2021/02/27 03:30 LEMH 270330Z AUTO 34006KT CAVOK 07/07 Q1026
 
LEIB - Ibiza/Es Codola, Spain
Distance from station: OSO 165km
Actualización: Sat, 27-Feb-2021 4:30am CET
Muy nuboso
Muy nuboso
 Viento del varies
Viento: varies 2 km/h
Temperatura: 11°C
Rocío: 8°C
Humedad: 82%
Barómetro: 1026 hPa
Clouds: Muy nuboso
Visibility: 10 km
Cloud details: Few Clouds 549 m
Muy nuboso 671 m
2021/02/27 03:30 LEIB 270330Z AUTO VRB01KT 9999 FEW018/// BKN022/// 11/08 Q1026
LEBL - Barcelona Airpor, Spain
Distance from station: NNO 225km
Actualización: Sat, 27-Feb-2021 4:30am CET
Parcialmente nuboso
Parcialmente nuboso
 Viento del NO
Viento: NO 17 km/h
Temperatura: 9°C
Sensación frio: 7°C
Rocío: 7°C
Humedad: 87%
Barómetro: 1026 hPa
Clouds: Parcialmente nuboso
Visibility: 9 km
2021/02/27 03:30 LEBL 270330Z 32009KT 9000 NSC 09/07 Q1026 NOSIG
 
LEVC - Valencia (civ/Mi, Spain
Distance from station: NO 188km
Actualización: Sat, 27-Feb-2021 4:30am CET
Parcialmente nuboso
Parcialmente nuboso
 Viento del O
Viento: O 6 km/h
Temperatura: 10°C
Rocío: 9°C
Humedad: 94%
Barómetro: 1027 hPa
Clouds: Parcialmente nuboso
Visibility: 9 km
Cloud details: Parcialmente nuboso 762 m
2021/02/27 03:30 LEVC 270330Z 27003KT 9000 SCT025 10/09 Q1027 NOSIG
LEGE - Gerona/Costa Bra, Spain
Distance from station: N 276km
Actualización: Sat, 27-Feb-2021 4:30am CET

 Viento del OSO
Viento: OSO 4 km/h
Visibility: 6 km
2021/02/27 03:30 LEGE 270330Z 24002KT 6000 0250 R02/0600D BCFG NSC 04/04 Q1026
 
LEAL - Alicante/El Alte, Spain
Distance from station: OSO 344km
Actualización: Sat, 27-Feb-2021 4:30am CET
Few Clouds
Few Clouds
 Viento del ONO
Viento: ONO 9 km/h
Temperatura: 11°C
Rocío: 6°C
Humedad: 72%
Barómetro: 1026 hPa
Clouds: Few Clouds
Visibility: 10 km
Cloud details: Few Clouds 671 m
2021/02/27 03:30 LEAL 270330Z 30005KT 9999 FEW022 11/06 Q1026 NOSIG
LEAM - Almeria Airport, Spain
Distance from station: SSO 56km
Actualización: Sat, 27-Feb-2021 4:30am CET
Despejado
Despejado
 Viento del varies
Viento: varies 4 km/h
Temperatura: 11°C
Rocío: 6°C
Humedad: 72%
Barómetro: 1024 hPa
Resumen: Despejado
Visibility: greater than 10 km
2021/02/27 03:30 LEAM 270330Z AUTO VRB02KT CAVOK 11/06 Q1024
 
LEZG - Zaragoza (mil/Ci, Spain
Distance from station: NO 431km
Actualización: Sat, 27-Feb-2021 4:30am CET
Despejado
Despejado
 Viento del O
Viento: O 17 km/h
Temperatura: 9°C
Sensación frio: 7°C
Rocío: 6°C
Humedad: 82%
Barómetro: 1028 hPa
Resumen: Despejado
Visibility: greater than 10 km
2021/02/27 03:30 LEZG 270330Z 27009KT CAVOK 09/06 Q1028
LEMD - Madrid/Barajas, Spain
Distance from station: ONO 234km
Actualización: Sat, 27-Feb-2021 4:30am CET
Despejado
Despejado
 Viento del NNO
Viento: NNO 6 km/h
Temperatura: 4°C
Rocío: 3°C
Humedad: 93%
Barómetro: 1026 hPa
Resumen: Despejado
Visibility: greater than 10 km
2021/02/27 03:30 LEMD 270330Z 34003KT CAVOK 04/03 Q1026 NOSIG
 
LEGR - Granada Airport, Spain
Distance from station: OSO 62km
Actualización: Sat, 27-Feb-2021 4:30am CET
Despejado
Despejado
 Viento del calm
Viento: Calma
Temperatura: 5°C
Rocío: 5°C
Humedad: 100%
Barómetro: 1024 hPa
Resumen: Despejado
Visibility: greater than 10 km
2021/02/27 03:30 LEGR 270330Z AUTO 00000KT CAVOK 05/05 Q1024
LEMG - Malaga (civ/Mil), Spain
Distance from station: OSO 227km
Actualización: Sat, 27-Feb-2021 4:30am CET
Muy nuboso
Muy nuboso
 Viento del ESE
Viento: ESE 17 km/h
Temperatura: 14°C
Rocío: 11°C
Humedad: 82%
Barómetro: 1024 hPa
Clouds: Muy nuboso
Visibility: 10 km
Cloud details: Few Clouds 549 m
Muy nuboso 914 m
2021/02/27 03:30 LEMG 270330Z 12009KT 090V150 9999 FEW018 BKN030 14/11 Q1024 NOSIG
 
LEZL - Sevilla (civ/Mil, Spain
Distance from station: S 318km
Actualización: Sat, 27-Feb-2021 4:30am CET
Few Clouds
Few Clouds
 Viento del varies
Viento: varies 4 km/h
Temperatura: 8°C
Rocío: 7°C
Humedad: 93%
Barómetro: 1024 hPa
Clouds: Few Clouds
Visibility: 8 km
Cloud details: Few Clouds 183 m
2021/02/27 03:30 LEZL 270330Z AUTO VRB02KT 8000 FEW006 08/07 Q1024
LEVT - Vitoria, Spain
Distance from station: NO 226km
Actualización: Sat, 27-Feb-2021 4:30am CET
Muy nuboso
Muy nuboso
 Viento del N
Viento: N 11 km/h
Temperatura: 8°C
Sensación frio: 6°C
Rocío: 6°C
Humedad: 87%
Barómetro: 1030 hPa
Clouds: Muy nuboso
Visibility: 10 km
Cloud details: Muy nuboso 640 m
2021/02/27 03:30 LEVT 270330Z 01006KT 330V030 9999 BKN021 08/06 Q1030
 
LEBB - Bilbao/Sondica, Spain
Distance from station: NNO 235km
Actualización: Sat, 27-Feb-2021 4:30am CET
Muy nuboso
Muy nuboso
 Viento del calm
Viento: Calma
Temperatura: 11°C
Rocío: 10°C
Humedad: 94%
Barómetro: 1031 hPa
Clouds: Muy nuboso
Visibility: 10 km
Cloud details: Muy nuboso 1219 m
2021/02/27 03:30 LEBB 270330Z AUTO 00000KT 9999 BKN040 11/10 Q1031
LESO - San Sebastian/Fu, Spain
Distance from station: N 231km
Actualización: Sat, 27-Feb-2021 4:30am CET
Cubierto
Cubierto
 Viento del calm
Viento: Calma
Temperatura: 12°C
Rocío: 10°C
Humedad: 88%
Barómetro: 1031 hPa
Clouds: Cubierto
Visibility: 10 km
Cloud details: Muy nuboso 488 m
Muy nuboso 884 m
Cubierto 1067 m
2021/02/27 03:30 LESO 270330Z AUTO 00000KT 9999 BKN016 BKN029 OVC035 12/10 Q1031
 
LEVD - Valladolid(Mil/C, Spain
Distance from station: ONO 239km
Actualización: Sat, 27-Feb-2021 4:30am CET
Mist, Few clouds
Mist, Few clouds
 Viento del ENE
Viento: ENE 9 km/h
Temperatura: 5°C
Sensación frio: 3°C
Rocío: 4°C
Humedad: 93%
Barómetro: 1027 hPa
Resumen: Mist
Clouds: Few Clouds
Visibility: 4 km
Cloud details: Few Clouds 823 m
2021/02/27 03:30 LEVD 270330Z AUTO 06005KT 040V100 4000 BR FEW027 05/04 Q1027
LESA - Salamanca (civ/M, Spain
Distance from station: ONO 349km
Actualización: Sat, 27-Feb-2021 4:30am CET
Mist, Despejado
Mist, Despejado
 Viento del SO
Viento: SO 6 km/h
Temperatura: 2°C
Rocío: 2°C
Humedad: 100%
Barómetro: 1027 hPa
Resumen: Mist
Clouds: Despejado
Visibility: 4 km
2021/02/27 03:30 LESA 270330Z AUTO 23003KT 4300 BR NCD 02/02 Q1027
 
LEXJ - Santander/Paraya, Spain
Distance from station: NNO 247km
Actualización: Sat, 27-Feb-2021 4:30am CET
Cubierto
Cubierto
 Viento del E
Viento: E 6 km/h
Temperatura: 12°C
Rocío: 10°C
Humedad: 88%
Barómetro: 1032 hPa
Clouds: Cubierto
Visibility: 10 km
Cloud details: Cubierto 1097 m
2021/02/27 03:30 LEXJ 270330Z AUTO 09003KT 040V120 9999 OVC036 12/10 Q1032
LEAS - Asturias/Aviles, Spain
Distance from station: NO 214km
Actualización: Sat, 27-Feb-2021 4:30am CET
Cubierto
Cubierto
 Viento del E
Viento: E 17 km/h
Temperatura: 11°C
Rocío: 10°C
Humedad: 94%
Barómetro: 1031 hPa
Clouds: Cubierto
Visibility: 10 km
Cloud details: Parcialmente nuboso 274 m
Muy nuboso 396 m
Cubierto 914 m
2021/02/27 03:30 LEAS 270330Z AUTO 09009KT 050V120 9999 SCT009 BKN013 OVC030 11/10 Q1031
 
LECO - La Coruna/Alvedr, Spain
Distance from station: ONO 222km
Actualización: Sat, 27-Feb-2021 4:30am CET
Despejado
Despejado
 Viento del SO
Viento: SO 4 km/h
Temperatura: 7°C
Rocío: 7°C
Humedad: 100%
Barómetro: 1028 hPa
Resumen: Despejado
Visibility: greater than 10 km
2021/02/27 03:30 LECO 270330Z AUTO 22002KT CAVOK 07/07 Q1028
LEVX - Vigo/Peinador, Spain
Distance from station: O 214km
Actualización: Sat, 27-Feb-2021 4:30am CET
Despejado
Despejado
 Viento del SSO
Viento: SSO 13 km/h
Temperatura: 10°C
Sensación frio: 8°C
Rocío: 9°C
Humedad: 94%
Barómetro: 1026 hPa
Resumen: Despejado
Visibility: greater than 10 km
2021/02/27 03:30 LEVX 270330Z 20007KT CAVOK 10/09 Q1026 NOSIG